Time;durP1;ratioP1;P1;durP2;ratioP2;P2;SDS_P1;SDS_P2;PMS_P1;PMS_P2;Temp;Humidity;BMP_temperature;BMP_pressure;BME280_temperature;BME280_humidity;BME280_pressure;Samples;Min_cycle;Max_cycle;Signal;HPM_P1;HPM_P2
2021/10/24 00:02:09;;;;;;;5.10;3.92;;;2.40;99.90;;;;;;4767654;30;20048;-82
2021/10/24 00:04:40;;;;;;;4.22;3.85;;;2.40;99.90;;;;;;4774804;29;20062;-80
2021/10/24 00:07:08;;;;;;;8.70;4.00;;;2.30;99.90;;;;;;4740484;30;20059;-81
2021/10/24 00:09:35;;;;;;;10.75;5.18;;;2.30;99.90;;;;;;4769354;30;20054;-82
2021/10/24 00:12:04;;;;;;;6.65;3.95;;;2.40;99.90;;;;;;4785608;30;20051;-81
2021/10/24 00:14:31;;;;;;;9.55;3.85;;;2.50;99.90;;;;;;4766368;29;20056;-81
2021/10/24 00:16:59;;;;;;;4.32;4.00;;;2.60;99.90;;;;;;4749772;30;20043;-82
2021/10/24 00:19:27;;;;;;;6.22;4.45;;;2.60;99.90;;;;;;4750310;30;20407;-80
2021/10/24 00:21:55;;;;;;;7.80;4.15;;;2.70;99.90;;;;;;4748489;30;20059;-81
2021/10/24 00:24:23;;;;;;;4.32;3.83;;;2.50;99.90;;;;;;4749806;30;20044;-80
2021/10/24 00:26:51;;;;;;;6.50;4.07;;;2.50;99.90;;;;;;4749620;30;20423;-82
2021/10/24 00:29:19;;;;;;;4.88;4.30;;;2.50;99.90;;;;;;4749082;30;20053;-81
2021/10/24 00:31:47;;;;;;;5.53;3.42;;;2.50;99.90;;;;;;4734283;30;20056;-81
2021/10/24 00:34:15;;;;;;;6.72;3.90;;;2.60;99.90;;;;;;4719248;30;20044;-81
2021/10/24 00:36:56;;;;;;;4.18;3.63;;;2.50;99.90;;;;;;4749575;30;20052;-82
2021/10/24 00:39:45;;;;;;;5.70;5.07;;;2.50;99.90;;;;;;4734160;30;20056;-81
2021/10/24 00:42:31;;;;;;;14.25;7.38;;;2.50;99.90;;;;;;4729526;30;20060;-80
2021/10/24 00:45:05;;;;;;;4.55;4.15;;;2.50;99.90;;;;;;4733783;30;20048;-82
2021/10/24 00:47:41;;;;;;;8.80;3.60;;;2.50;99.90;;;;;;4733946;30;20055;-82
2021/10/24 00:50:40;;;;;;;4.50;4.15;;;2.60;99.90;;;;;;4713680;30;20506;-82
2021/10/24 00:53:14;;;;;;;6.13;3.65;;;2.50;99.90;;;;;;4748960;29;20219;-81
2021/10/24 00:55:44;;;;;;;4.80;4.40;;;2.40;99.90;;;;;;4752875;30;20052;-81
2021/10/24 00:58:32;;;;;;;6.57;3.65;;;2.40;99.90;;;;;;4742878;30;20811;-82
2021/10/24 01:01:04;;;;;;;3.88;3.55;;;2.50;99.90;;;;;;4756622;29;20051;-81
2021/10/24 01:03:48;;;;;;;15.90;4.60;;;2.40;99.90;;;;;;4753065;30;20048;-81
2021/10/24 01:06:17;;;;;;;5.65;5.07;;;2.30;99.90;;;;;;4751250;30;20056;-82
2021/10/24 01:09:09;;;;;;;6.13;5.20;;;2.30;99.90;;;;;;4745134;30;20067;-82
2021/10/24 01:11:38;;;;;;;4.80;4.32;;;2.20;99.90;;;;;;4767989;30;20467;-82
2021/10/24 01:14:26;;;;;;;8.07;4.57;;;2.20;99.90;;;;;;4739424;30;20068;-81
2021/10/24 01:16:54;;;;;;;4.13;3.80;;;2.20;99.90;;;;;;4752491;30;20089;-81
2021/10/24 01:19:23;;;;;;;4.63;4.00;;;2.20;99.90;;;;;;4752939;30;20062;-82
2021/10/24 01:21:53;;;;;;;7.95;4.35;;;2.30;99.90;;;;;;4737959;30;20504;-82
2021/10/24 01:24:23;;;;;;;3.55;3.28;;;2.30;99.90;;;;;;4752855;30;20059;-83
2021/10/24 01:26:52;;;;;;;11.25;5.88;;;2.30;99.90;;;;;;4749570;30;20060;-81
2021/10/24 01:29:19;;;;;;;5.57;3.83;;;2.30;99.90;;;;;;4749110;30;20143;-81
2021/10/24 01:32:04;;;;;;;4.03;3.67;;;2.30;99.90;;;;;;4735601;30;20071;-82
2021/10/24 01:34:49;;;;;;;5.30;4.18;;;2.30;99.90;;;;;;4734902;30;20071;-82
2021/10/24 01:37:33;;;;;;;5.13;4.63;;;2.20;99.90;;;;;;4735132;30;20063;-82
2021/10/24 01:40:34;;;;;;;5.22;4.20;;;2.30;99.90;;;;;;4720351;30;20060;-81
2021/10/24 01:43:19;;;;;;;10.02;6.28;;;2.30;99.90;;;;;;4735249;30;20048;-82
2021/10/24 01:45:48;;;;;;;5.88;5.38;;;2.40;99.90;;;;;;4740893;30;20165;-82
2021/10/24 01:48:45;;;;;;;4.68;4.28;;;2.30;99.90;;;;;;4734703;30;20052;-81
2021/10/24 01:51:13;;;;;;;8.50;4.18;;;2.30;99.90;;;;;;4701372;30;20457;-82
2021/10/24 01:53:43;;;;;;;4.22;3.92;;;2.30;99.90;;;;;;4720107;30;20064;-81
2021/10/24 01:56:12;;;;;;;6.95;6.28;;;2.30;99.90;;;;;;4734655;30;20423;-81
2021/10/24 01:58:43;;;;;;;4.85;4.40;;;2.30;99.90;;;;;;4719554;30;20052;-81
2021/10/24 02:01:11;;;;;;;6.68;4.45;;;2.20;99.90;;;;;;4733338;30;20518;-81
2021/10/24 02:04:08;;;;;;;4.85;4.03;;;2.20;99.90;;;;;;4742048;30;20063;-82
2021/10/24 02:06:49;;;;;;;6.07;5.15;;;2.20;99.90;;;;;;4754711;30;20062;-81
2021/10/24 02:09:18;;;;;;;6.57;5.28;;;2.20;99.90;;;;;;4769597;30;20058;-81
2021/10/24 02:11:46;;;;;;;7.55;6.63;;;2.10;99.90;;;;;;4763086;30;20067;-81
2021/10/24 02:14:16;;;;;;;7.43;5.53;;;2.10;99.90;;;;;;4745532;30;20059;-81
2021/10/24 02:16:47;;;;;;;7.10;5.15;;;2.00;99.90;;;;;;4736833;30;20053;-80
2021/10/24 02:19:16;;;;;;;11.57;6.50;;;2.00;99.90;;;;;;4735990;30;20067;-81
2021/10/24 02:22:20;;;;;;;7.03;4.37;;;1.90;99.90;;;;;;4720621;30;20502;-81
2021/10/24 02:25:08;;;;;;;8.63;4.60;;;1.90;99.90;;;;;;4748802;30;20066;-81
2021/10/24 02:28:04;;;;;;;5.93;4.68;;;1.80;99.90;;;;;;4750774;30;20056;-81
2021/10/24 02:30:38;;;;;;;26.20;7.47;;;1.90;99.90;;;;;;4749304;30;20055;-81
2021/10/24 02:33:31;;;;;;;5.28;4.50;;;1.80;99.90;;;;;;4735093;30;20063;-82
2021/10/24 02:36:45;;;;;;;7.40;4.30;;;2.00;99.90;;;;;;4750919;30;20060;-81
2021/10/24 02:39:16;;;;;;;3.97;3.63;;;1.90;99.90;;;;;;4732441;30;20080;-82
2021/10/24 02:41:48;;;;;;;11.90;6.10;;;1.80;99.90;;;;;;4749748;30;20763;-81
2021/10/24 02:44:49;;;;;;;5.22;4.75;;;1.70;99.90;;;;;;4749101;30;20071;-81
2021/10/24 02:47:17;;;;;;;9.48;5.40;;;1.60;99.90;;;;;;4720581;30;20500;-82
2021/10/24 02:49:45;;;;;;;9.40;5.10;;;1.70;99.90;;;;;;4737315;30;20073;-81
2021/10/24 02:52:16;;;;;;;6.85;5.25;;;1.70;99.90;;;;;;4717803;30;20053;-81
2021/10/24 02:54:44;;;;;;;14.27;5.38;;;1.70;99.90;;;;;;4716924;30;20060;-81
2021/10/24 02:57:21;;;;;;;8.83;5.57;;;1.70;99.90;;;;;;4717287;30;20056;-83
2021/10/24 02:59:57;;;;;;;6.03;5.43;;;1.70;99.90;;;;;;4732719;30;20052;-82
2021/10/24 03:02:27;;;;;;;10.88;4.88;;;1.70;99.90;;;;;;4731974;30;20048;-82
2021/10/24 03:05:15;;;;;;;9.15;6.63;;;1.70;99.90;;;;;;4742449;30;20062;-86
2021/10/24 03:07:53;;;;;;;14.40;7.40;;;1.70;99.90;;;;;;4739197;30;20071;-87
2021/10/24 03:10:21;;;;;;;9.25;5.43;;;1.70;99.90;;;;;;4766205;30;20043;-82
2021/10/24 03:13:04;;;;;;;5.18;4.78;;;1.70;99.90;;;;;;4752352;30;20051;-86
2021/10/24 03:16:11;;;;;;;10.50;5.85;;;1.70;99.90;;;;;;4737536;30;20506;-82
2021/10/24 03:18:42;;;;;;;11.13;5.90;;;1.70;99.90;;;;;;4739941;30;20052;-87
2021/10/24 03:21:27;;;;;;;9.45;5.43;;;1.70;99.90;;;;;;4768135;30;20036;-87
2021/10/24 03:24:04;;;;;;;7.82;7.07;;;1.60;99.90;;;;;;4723463;30;20071;-86
2021/10/24 03:26:53;;;;;;;7.35;4.35;;;1.60;99.90;;;;;;4732760;30;20056;-84
2021/10/24 03:29:42;;;;;;;6.95;5.40;;;1.60;99.90;;;;;;4730455;30;20044;-86
2021/10/24 03:33:14;;;;;;;16.90;8.18;;;1.60;99.90;;;;;;4730565;30;20085;-84
2021/10/24 03:35:42;;;;;;;16.65;7.13;;;1.50;99.90;;;;;;4732174;30;20483;-84
2021/10/24 03:38:10;;;;;;;5.63;5.15;;;1.60;99.90;;;;;;4731639;30;20061;-85
2021/10/24 03:40:38;;;;;;;10.52;6.43;;;1.70;99.90;;;;;;4730940;30;20061;-85
2021/10/24 03:43:06;;;;;;;9.52;5.78;;;1.60;99.90;;;;;;4732007;30;20056;-86
2021/10/24 03:45:34;;;;;;;7.25;5.50;;;1.60;99.90;;;;;;4730853;30;20056;-84
2021/10/24 03:48:02;;;;;;;9.30;7.20;;;1.60;99.90;;;;;;4731754;30;20060;-85
2021/10/24 03:50:39;;;;;;;6.45;5.25;;;1.70;99.90;;;;;;4748921;30;20059;-85
2021/10/24 03:53:07;;;;;;;12.48;9.00;;;1.60;99.90;;;;;;4763149;30;20411;-85
2021/10/24 03:55:35;;;;;;;12.05;8.68;;;1.60;99.90;;;;;;4734621;30;20079;-87
2021/10/24 03:58:17;;;;;;;;;;;;;;;;;;;;;
2021/10/24 04:01:24;;;;;;;5.63;5.15;;;1.60;99.90;;;;;;4710406;30;20040;-85
2021/10/24 04:03:57;;;;;;;7.32;6.60;;;1.50;99.90;;;;;;4753970;30;20056;-84
2021/10/24 04:06:59;;;;;;;13.77;7.07;;;1.50;99.90;;;;;;4789636;29;20051;-88
2021/10/24 04:09:31;;;;;;;8.35;6.43;;;1.40;99.90;;;;;;4777545;29;20040;-84
2021/10/24 04:12:04;;;;;;;8.57;6.47;;;1.40;99.90;;;;;;4769373;30;20070;-83
2021/10/24 04:15:40;;;;;;;9.15;6.45;;;1.40;99.90;;;;;;4750380;29;20063;-84
2021/10/24 04:18:49;;;;;;;8.90;6.57;;;1.40;99.90;;;;;;4753190;29;20060;-88
2021/10/24 04:21:23;;;;;;;7.55;6.68;;;1.50;99.90;;;;;;4748380;30;20071;-87
2021/10/24 04:23:53;;;;;;;6.45;5.85;;;1.50;99.90;;;;;;4735405;30;20060;-88
2021/10/24 04:26:23;;;;;;;10.63;6.18;;;1.50;99.90;;;;;;4762435;30;20051;-87
2021/10/24 04:28:51;;;;;;;9.02;6.30;;;1.50;99.90;;;;;;4737246;30;20055;-87
2021/10/24 04:31:19;;;;;;;9.10;7.43;;;1.50;99.90;;;;;;4734400;30;20065;-86
2021/10/24 04:33:48;;;;;;;7.95;7.20;;;1.50;99.90;;;;;;4749213;30;20542;-86
2021/10/24 04:36:21;;;;;;;8.48;7.22;;;1.40;99.90;;;;;;4752676;30;20059;-86
2021/10/24 04:39:05;;;;;;;8.07;6.68;;;1.40;99.90;;;;;;4725177;30;20048;-87
2021/10/24 04:41:38;;;;;;;7.40;6.75;;;1.40;99.90;;;;;;4751524;30;20052;-88
2021/10/24 04:44:15;;;;;;;10.87;7.13;;;1.40;99.90;;;;;;4752798;30;20091;-87
2021/10/24 04:46:43;;;;;;;8.02;5.03;;;1.40;99.90;;;;;;4722626;30;20056;-85
2021/10/24 04:49:13;;;;;;;7.10;6.32;;;1.30;99.90;;;;;;4736828;30;20415;-85
2021/10/24 04:51:42;;;;;;;12.52;7.65;;;1.30;99.90;;;;;;4737421;30;20669;-87
2021/10/24 04:54:13;;;;;;;;;;;1.30;99.90;;;;;;4751771;30;20060;-87
2021/10/24 04:56:42;;;;;;;13.95;9.00;;;1.30;99.90;;;;;;4737010;30;19943;-86
2021/10/24 04:59:10;;;;;;;8.18;7.35;;;1.30;99.90;;;;;;4736795;30;20617;-85
2021/10/24 05:01:42;;;;;;;8.33;6.80;;;1.30;99.90;;;;;;4742284;30;20060;-88
2021/10/24 05:04:11;;;;;;;7.38;6.53;;;1.20;99.90;;;;;;4726788;30;20060;-86
2021/10/24 05:06:39;;;;;;;8.43;7.07;;;1.20;99.90;;;;;;4754412;30;20047;-86
2021/10/24 05:09:16;;;;;;;8.57;6.45;;;1.20;99.90;;;;;;4725197;30;20047;-85
2021/10/24 05:11:44;;;;;;;7.72;6.75;;;1.20;99.90;;;;;;4769170;30;20043;-87
2021/10/24 05:14:15;;;;;;;6.47;5.78;;;1.20;99.90;;;;;;4783388;29;20059;-87
2021/10/24 05:20:13;;;;;;;7.13;5.55;;;1.30;99.90;;;;;;4770811;30;20620;-85
2021/10/24 05:22:41;;;;;;;8.18;7.30;;;1.30;99.90;;;;;;4753653;30;20410;-78
2021/10/24 05:25:11;;;;;;;8.43;7.20;;;1.30;99.90;;;;;;4756662;30;20056;-87
2021/10/24 05:27:44;;;;;;;13.35;7.70;;;1.30;99.90;;;;;;4734114;30;20060;-88
2021/10/24 05:30:12;;;;;;;9.05;8.07;;;1.40;99.90;;;;;;4733024;30;20523;-86
2021/10/24 05:32:40;;;;;;;11.18;7.57;;;1.30;99.90;;;;;;4733476;30;20064;-86
2021/10/24 05:35:07;;;;;;;10.25;7.03;;;1.30;99.90;;;;;;4733751;30;20496;-86
2021/10/24 05:37:35;;;;;;;11.50;7.10;;;1.30;99.90;;;;;;4733473;30;20063;-86
2021/10/24 05:40:04;;;;;;;12.48;7.45;;;1.30;99.90;;;;;;4733394;30;20052;-88
2021/10/24 05:42:55;;;;;;;9.38;6.85;;;1.30;99.90;;;;;;4733254;30;20056;-88
2021/10/24 05:45:24;;;;;;;10.73;7.97;;;1.30;99.90;;;;;;4747608;30;20416;-87
2021/10/24 05:47:52;;;;;;;9.10;7.55;;;1.30;99.90;;;;;;4748395;30;20061;-85
2021/10/24 05:50:35;;;;;;;12.43;6.80;;;1.30;99.90;;;;;;4732904;30;20060;-86
2021/10/24 05:53:04;;;;;;;11.55;6.47;;;1.40;99.90;;;;;;4732993;30;20699;-87
2021/10/24 05:55:33;;;;;;;11.55;7.35;;;1.30;99.90;;;;;;4733438;30;20057;-84
2021/10/24 05:58:00;;;;;;;9.75;8.30;;;1.30;99.90;;;;;;4726652;30;20049;-86
2021/10/24 06:00:54;;;;;;;9.93;8.75;;;1.30;99.90;;;;;;4716067;30;20087;-84
2021/10/24 06:03:41;;;;;;;9.10;7.18;;;1.30;99.90;;;;;;4735294;30;20049;-86
2021/10/24 06:06:27;;;;;;;11.07;9.32;;;1.30;99.90;;;;;;4773248;29;20058;-86
2021/10/24 06:08:54;;;;;;;5.93;5.38;;;1.30;99.90;;;;;;4768316;30;20401;-88
2021/10/24 06:11:33;;;;;;;11.63;8.68;;;1.40;99.90;;;;;;4768454;30;20064;-87
2021/10/24 06:14:04;;;;;;;9.90;8.13;;;1.30;99.90;;;;;;4742135;30;20085;-87
2021/10/24 06:16:37;;;;;;;8.10;7.22;;;1.40;99.90;;;;;;4732341;30;20056;-86
2021/10/24 06:19:05;;;;;;;9.27;8.35;;;1.40;99.90;;;;;;4732884;30;20060;-85
2021/10/24 06:21:36;;;;;;;10.88;7.60;;;1.50;99.90;;;;;;4703601;30;20052;-85
2021/10/24 06:24:05;;;;;;;10.70;8.05;;;1.40;99.90;;;;;;4733017;30;20057;-86
2021/10/24 06:26:33;;;;;;;9.93;7.57;;;1.60;99.90;;;;;;4718109;30;20068;-87
2021/10/24 06:29:03;;;;;;;8.77;7.93;;;1.40;99.90;;;;;;4717984;30;20051;-86
2021/10/24 06:31:32;;;;;;;16.25;8.68;;;1.60;99.90;;;;;;4732373;30;20076;-87
2021/10/24 06:34:25;;;;;;;8.75;7.65;;;1.50;99.90;;;;;;4700581;30;20055;-82
2021/10/24 06:37:42;;;;;;;13.27;9.48;;;1.50;99.90;;;;;;4717604;30;20083;-83
2021/10/24 06:40:15;;;;;;;11.50;9.00;;;1.60;99.90;;;;;;4717641;30;20063;-81
2021/10/24 06:42:50;;;;;;;10.15;8.10;;;1.70;99.90;;;;;;4718578;30;20059;-82
2021/10/24 06:45:45;;;;;;;12.00;8.95;;;1.70;99.90;;;;;;4731331;30;20053;-82
2021/10/24 06:49:12;;;;;;;12.20;7.18;;;1.80;99.90;;;;;;4739029;29;20055;-82
2021/10/24 06:51:43;;;;;;;10.95;7.40;;;1.80;99.90;;;;;;4720827;30;20064;-81
2021/10/24 06:54:33;;;;;;;11.10;8.65;;;1.90;99.90;;;;;;4749146;30;20722;-81
2021/10/24 06:57:27;;;;;;;8.10;6.18;;;1.90;99.90;;;;;;4739426;30;20121;-82
2021/10/24 07:00:22;;;;;;;14.52;8.20;;;1.90;99.90;;;;;;4734300;30;20491;-82
2021/10/24 07:03:08;;;;;;;14.48;11.25;;;2.00;99.90;;;;;;4733943;30;20044;-82
2021/10/24 07:06:04;;;;;;;14.57;9.15;;;2.10;99.90;;;;;;4751208;30;20048;-81
2021/10/24 07:08:54;;;;;;;12.82;10.30;;;2.10;99.90;;;;;;4746021;30;20383;-82
2021/10/24 07:11:25;;;;;;;8.98;5.97;;;2.30;99.90;;;;;;4737497;30;20055;-83
2021/10/24 07:14:01;;;;;;;10.00;7.20;;;2.40;99.90;;;;;;4752645;30;20535;-82
2021/10/24 07:16:29;;;;;;;9.18;7.68;;;2.50;99.90;;;;;;4768468;30;20193;-83
2021/10/24 07:18:57;;;;;;;10.70;6.38;;;2.60;99.90;;;;;;4752034;30;20047;-81
2021/10/24 07:21:25;;;;;;;10.60;8.60;;;2.80;99.90;;;;;;4751677;30;20055;-81
2021/10/24 07:23:54;;;;;;;8.65;7.85;;;2.80;99.90;;;;;;4752307;30;20068;-82
2021/10/24 07:26:32;;;;;;;9.50;7.70;;;2.90;99.90;;;;;;4721437;30;20048;-81
2021/10/24 07:29:00;;;;;;;15.38;8.82;;;3.00;99.90;;;;;;4748665;30;20044;-81
2021/10/24 07:31:29;;;;;;;8.88;6.45;;;3.00;99.90;;;;;;4734623;30;20056;-81
2021/10/24 07:34:24;;;;;;;7.38;6.25;;;3.10;99.90;;;;;;4746494;30;20056;-82
2021/10/24 07:36:53;;;;;;;7.20;5.75;;;3.20;99.90;;;;;;4736883;29;20841;-83
2021/10/24 07:39:21;;;;;;;10.65;7.65;;;3.30;99.90;;;;;;4748934;30;20060;-83
2021/10/24 07:41:48;;;;;;;13.65;8.07;;;3.30;99.90;;;;;;4746972;30;20063;-81
2021/10/24 07:44:17;;;;;;;8.68;6.45;;;3.40;99.90;;;;;;4731681;30;20498;-79
2021/10/24 07:46:46;;;;;;;11.52;8.07;;;3.40;99.90;;;;;;4747371;30;20056;-82
2021/10/24 07:49:14;;;;;;;9.95;6.05;;;3.50;99.90;;;;;;4749445;30;20044;-82
2021/10/24 07:51:43;;;;;;;13.65;6.57;;;3.50;99.90;;;;;;4748603;30;20060;-84
2021/10/24 07:54:11;;;;;;;6.82;6.22;;;3.70;99.90;;;;;;4733562;30;20059;-82
2021/10/24 07:56:39;;;;;;;6.38;5.85;;;3.70;99.90;;;;;;4748651;30;20063;-81
2021/10/24 07:59:18;;;;;;;7.30;6.35;;;3.90;99.90;;;;;;4751302;30;20135;-81
2021/10/24 08:01:45;;;;;;;8.40;7.15;;;4.00;99.90;;;;;;4752182;30;20423;-82
2021/10/24 08:04:14;;;;;;;5.10;3.83;;;4.20;99.90;;;;;;4757142;30;20048;-82
2021/10/24 08:06:41;;;;;;;6.00;5.28;;;4.40;99.90;;;;;;4778673;30;20062;-81
2021/10/24 08:09:12;;;;;;;5.35;4.88;;;4.50;99.90;;;;;;4740148;30;20395;-81
2021/10/24 08:11:45;;;;;;;10.00;7.00;;;4.70;99.90;;;;;;4770075;30;20052;-82
2021/10/24 08:14:13;;;;;;;8.18;5.68;;;4.90;99.90;;;;;;4756839;30;20052;-81
2021/10/24 08:16:41;;;;;;;3.75;3.53;;;5.10;99.90;;;;;;4735494;30;20060;-85
2021/10/24 08:19:20;;;;;;;8.50;6.53;;;5.30;99.90;;;;;;4734820;30;20057;-82
2021/10/24 08:21:54;;;;;;;12.25;7.40;;;5.30;99.90;;;;;;4733629;30;20064;-82
2021/10/24 08:24:24;;;;;;;6.32;5.47;;;5.50;99.90;;;;;;4734237;30;20072;-83
2021/10/24 08:27:00;;;;;;;7.45;5.43;;;5.50;99.90;;;;;;4719081;30;20056;-83
2021/10/24 08:29:28;;;;;;;8.68;5.70;;;5.60;99.90;;;;;;4748188;30;20041;-82
2021/10/24 08:32:20;;;;;;;7.65;6.50;;;5.60;99.90;;;;;;4734987;30;20072;-82
2021/10/24 08:34:56;;;;;;;5.78;4.60;;;5.60;99.90;;;;;;4727874;30;20059;-81
2021/10/24 08:37:24;;;;;;;7.97;6.40;;;5.60;99.90;;;;;;4719565;30;20055;-81
2021/10/24 08:39:53;;;;;;;5.35;4.85;;;5.80;99.90;;;;;;4719644;30;20530;-81
2021/10/24 08:42:28;;;;;;;6.38;5.50;;;5.90;99.90;;;;;;4746319;30;20059;-82
2021/10/24 08:48:39;;;;;;;4.28;3.50;;;6.10;99.90;;;;;;4702553;30;20052;-81
2021/10/24 08:52:06;;;;;;;6.22;5.30;;;6.20;99.90;;;;;;4716629;30;20573;-83
2021/10/24 08:54:50;;;;;;;6.38;5.18;;;6.60;99.90;;;;;;4722422;30;20063;-81
2021/10/24 08:57:50;;;;;;;6.32;4.22;;;6.70;99.90;;;;;;4716126;30;20052;-82
2021/10/24 09:01:27;;;;;;;5.72;5.13;;;6.60;99.90;;;;;;4725262;30;20507;-83
2021/10/24 09:04:28;;;;;;;7.40;5.05;;;6.60;99.90;;;;;;4711861;30;20063;-83
2021/10/24 09:07:26;;;;;;;8.27;5.25;;;6.80;99.90;;;;;;4750489;30;20048;-82
2021/10/24 09:10:39;;;;;;;5.93;5.43;;;6.80;99.90;;;;;;4752864;30;20050;-82
2021/10/24 09:13:25;;;;;;;5.53;5.03;;;6.80;99.90;;;;;;4761097;29;20051;-82
2021/10/24 09:16:09;;;;;;;6.40;5.78;;;7.00;99.90;;;;;;4764101;30;20056;-82
2021/10/24 09:18:49;;;;;;;6.57;5.28;;;7.00;99.90;;;;;;4775945;29;20048;-81
2021/10/24 09:21:23;;;;;;;7.32;5.18;;;7.00;99.90;;;;;;4753710;30;20052;-83
2021/10/24 09:24:12;;;;;;;5.43;4.90;;;6.90;99.90;;;;;;4754086;30;20036;-78
2021/10/24 09:26:41;;;;;;;5.50;4.40;;;6.90;99.90;;;;;;4752729;30;20048;-79
2021/10/24 09:29:11;;;;;;;6.28;4.78;;;6.90;99.90;;;;;;4751070;30;20418;-80
2021/10/24 09:31:45;;;;;;;6.78;4.88;;;7.00;99.90;;;;;;4751304;30;20051;-81
2021/10/24 09:34:23;;;;;;;10.05;4.80;;;7.10;99.90;;;;;;4752122;30;20052;-79
2021/10/24 09:37:18;;;;;;;7.78;4.85;;;7.10;99.90;;;;;;4751721;30;20056;-79
2021/10/24 09:40:09;;;;;;;6.18;5.57;;;7.30;99.90;;;;;;4750727;30;20063;-79
2021/10/24 09:42:37;;;;;;;5.78;4.93;;;7.30;99.90;;;;;;4751866;30;20048;-80
2021/10/24 09:45:09;;;;;;;6.72;5.20;;;7.40;99.90;;;;;;4750701;30;20052;-80
2021/10/24 09:47:43;;;;;;;7.13;4.47;;;7.50;99.90;;;;;;4750781;30;20048;-79
2021/10/24 09:50:32;;;;;;;5.38;4.63;;;7.50;99.90;;;;;;4751193;30;20060;-79
2021/10/24 09:53:23;;;;;;;5.82;4.82;;;7.60;99.90;;;;;;4751679;30;20510;-80
2021/10/24 09:55:53;;;;;;;6.25;4.00;;;7.70;99.90;;;;;;4751986;30;20060;-80
2021/10/24 09:58:23;;;;;;;5.03;4.55;;;7.70;99.90;;;;;;4764832;30;20055;-79
2021/10/24 10:00:51;;;;;;;5.25;4.45;;;7.60;99.90;;;;;;4750868;30;20056;-79
2021/10/24 10:03:20;;;;;;;7.95;4.22;;;7.70;99.90;;;;;;4751887;30;20440;-79
2021/10/24 10:05:48;;;;;;;5.93;5.40;;;7.70;99.90;;;;;;4767316;30;20059;-78
2021/10/24 10:08:43;;;;;;;7.13;6.30;;;8.00;99.90;;;;;;4768989;30;20403;-79
2021/10/24 10:11:24;;;;;;;6.20;5.38;;;8.10;99.90;;;;;;4769189;30;20055;-79
2021/10/24 10:14:01;;;;;;;5.75;4.35;;;8.00;99.90;;;;;;4760335;30;20051;-79
2021/10/24 10:16:41;;;;;;;5.75;4.60;;;8.10;99.90;;;;;;4733759;30;20491;-79
2021/10/24 10:19:11;;;;;;;5.18;4.65;;;8.30;99.90;;;;;;4731257;30;20048;-78
2021/10/24 10:21:43;;;;;;;7.32;4.88;;;8.40;99.90;;;;;;4732337;30;20079;-79
2021/10/24 10:24:33;;;;;;;5.82;4.72;;;8.70;99.90;;;;;;4733563;30;20090;-79
2021/10/24 10:27:27;;;;;;;5.00;4.40;;;8.80;99.90;;;;;;4732647;30;20084;-79
2021/10/24 10:30:06;;;;;;;4.90;4.30;;;9.00;99.90;;;;;;4732470;30;20056;-79
2021/10/24 10:32:43;;;;;;;9.40;4.60;;;9.10;99.90;;;;;;4732576;30;20760;-79
2021/10/24 10:35:20;;;;;;;9.70;5.25;;;9.30;99.90;;;;;;4733787;30;20053;-79
2021/10/24 10:37:55;;;;;;;4.72;4.32;;;9.40;99.90;;;;;;4733443;30;20049;-79
2021/10/24 10:40:30;;;;;;;4.80;4.03;;;9.40;99.90;;;;;;4733228;30;20055;-82
2021/10/24 10:43:21;;;;;;;6.32;5.30;;;9.40;99.90;;;;;;4732672;30;20053;-81
2021/10/24 10:45:57;;;;;;;8.18;3.95;;;9.50;99.90;;;;;;4732434;30;20068;-82
2021/10/24 10:48:46;;;;;;;4.45;4.10;;;9.70;99.90;;;;;;4702902;30;20052;-83
2021/10/24 10:51:28;;;;;;;6.53;4.53;;;9.90;99.90;;;;;;4730719;30;20059;-82
2021/10/24 10:54:01;;;;;;;5.35;3.78;;;10.00;99.90;;;;;;4731691;30;20052;-82
2021/10/24 10:56:44;;;;;;;8.68;5.18;;;10.10;99.90;;;;;;4733512;30;20052;-83
2021/10/24 10:59:36;;;;;;;6.25;5.05;;;10.30;99.90;;;;;;4730659;30;20064;-79
2021/10/24 11:02:22;;;;;;;4.57;4.03;;;10.30;99.90;;;;;;4732763;30;20067;-79
2021/10/24 11:04:52;;;;;;;4.68;4.30;;;10.20;99.90;;;;;;4750660;30;20055;-81
2021/10/24 11:07:43;;;;;;;5.93;4.75;;;9.90;99.90;;;;;;4752666;30;20390;-83
2021/10/24 11:10:17;;;;;;;6.80;5.28;;;9.80;99.90;;;;;;4751678;30;20506;-83
2021/10/24 11:12:47;;;;;;;4.65;4.30;;;10.00;99.90;;;;;;4766561;30;20139;-83
2021/10/24 11:15:27;;;;;;;4.05;3.65;;;10.00;99.90;;;;;;4767847;30;20052;-83
2021/10/24 11:17:58;;;;;;;4.22;3.85;;;10.10;99.90;;;;;;4767870;30;20070;-84
2021/10/24 11:20:38;;;;;;;9.88;4.47;;;10.10;99.90;;;;;;4768128;30;20715;-82
2021/10/24 11:23:09;;;;;;;5.68;4.25;;;10.20;99.90;;;;;;4765250;30;20052;-83
2021/10/24 11:25:50;;;;;;;4.30;3.95;;;10.20;99.90;;;;;;4757245;30;20403;-83
2021/10/24 11:28:25;;;;;;;7.55;5.97;;;10.30;99.90;;;;;;4734380;30;20059;-82
2021/10/24 11:31:01;;;;;;;4.00;3.63;;;10.20;99.90;;;;;;4749574;30;20063;-83
2021/10/24 11:33:45;;;;;;;5.22;4.80;;;10.30;99.90;;;;;;4749719;30;20055;-83
2021/10/24 11:36:40;;;;;;;5.85;5.38;;;10.50;99.90;;;;;;4750822;30;20059;-84
2021/10/24 11:39:08;;;;;;;4.03;3.60;;;10.50;99.90;;;;;;4718542;30;20103;-83
2021/10/24 11:41:36;;;;;;;7.20;3.75;;;10.60;99.90;;;;;;4749702;30;20052;-84
2021/10/24 11:44:07;;;;;;;3.75;3.45;;;10.70;99.90;;;;;;4748357;30;20071;-82
2021/10/24 11:46:36;;;;;;;3.75;3.45;;;10.70;99.90;;;;;;4749814;30;20063;-82
2021/10/24 11:49:05;;;;;;;7.60;3.75;;;10.60;99.90;;;;;;4749631;30;20060;-82
2021/10/24 11:51:34;;;;;;;13.75;4.97;;;10.60;99.90;;;;;;4734415;30;20517;-83
2021/10/24 11:54:09;;;;;;;5.97;3.78;;;10.50;99.90;;;;;;4734063;30;20048;-84
2021/10/24 11:57:33;;;;;;;4.28;3.88;;;10.60;99.90;;;;;;4749857;30;20056;-82
2021/10/24 11:59:39;;;;;;;4.03;3.63;;;10.70;99.90;;;;;;4745819;30;20079;-83
2021/10/24 12:02:10;;;;;;;4.15;3.80;;;10.90;99.90;;;;;;4749735;30;20060;-83
2021/10/24 12:04:39;;;;;;;4.07;3.78;;;10.90;99.90;;;;;;4755736;30;20071;-83
2021/10/24 12:07:07;;;;;;;3.97;3.40;;;10.90;99.90;;;;;;4767797;30;20059;-84
2021/10/24 12:09:54;;;;;;;3.67;3.33;;;11.00;99.90;;;;;;4767422;30;20056;-82
2021/10/24 12:12:26;;;;;;;5.43;3.72;;;11.00;99.90;;;;;;4767894;30;20067;-78
2021/10/24 12:15:04;;;;;;;4.28;3.30;;;11.00;99.90;;;;;;4752164;30;20076;-80
2021/10/24 12:17:38;;;;;;;4.60;3.78;;;11.00;99.90;;;;;;4758782;30;20494;-83
2021/10/24 12:20:28;;;;;;;5.10;4.63;;;11.00;99.90;;;;;;4767173;30;20520;-84
2021/10/24 12:23:01;;;;;;;3.78;3.35;;;11.10;99.90;;;;;;4751063;30;20808;-84
2021/10/24 12:25:52;;;;;;;4.32;3.38;;;11.20;99.90;;;;;;4764975;30;20069;-84
2021/10/24 12:28:34;;;;;;;2.75;2.47;;;11.40;99.90;;;;;;4766027;30;20056;-79
2021/10/24 12:31:12;;;;;;;4.40;3.35;;;11.50;99.90;;;;;;4765539;30;20043;-78
2021/10/24 12:33:41;;;;;;;3.75;3.42;;;11.40;99.90;;;;;;4766782;30;20052;-79
2021/10/24 12:36:28;;;;;;;3.63;3.33;;;11.50;99.90;;;;;;4767067;30;20410;-78
2021/10/24 12:38:59;;;;;;;4.00;3.60;;;11.40;99.90;;;;;;4766471;30;20051;-78
2021/10/24 12:41:40;;;;;;;4.82;3.53;;;11.40;99.90;;;;;;4760778;30;20394;-79
2021/10/24 12:44:09;;;;;;;6.57;3.50;;;11.60;99.90;;;;;;4749038;30;20060;-79
2021/10/24 12:46:39;;;;;;;3.72;2.70;;;11.80;99.90;;;;;;4752517;30;20561;-79
2021/10/24 12:49:22;;;;;;;3.55;2.83;;;11.90;99.90;;;;;;4752373;30;20048;-79
2021/10/24 12:52:07;;;;;;;4.15;3.85;;;12.10;99.90;;;;;;4753287;30;20071;-79
2021/10/24 12:54:35;;;;;;;4.47;4.07;;;12.30;99.90;;;;;;4752360;30;20067;-79
2021/10/24 12:57:06;;;;;;;3.78;3.47;;;12.10;99.90;;;;;;4751550;30;20052;-83
2021/10/24 12:59:34;;;;;;;9.93;3.22;;;12.00;99.90;;;;;;4752278;30;20494;-79
2021/10/24 13:02:08;;;;;;;5.80;4.93;;;12.00;99.90;;;;;;4752489;30;20048;-79
2021/10/24 13:04:36;;;;;;;3.35;2.70;;;12.10;99.90;;;;;;4759384;30;20494;-79
2021/10/24 13:07:04;;;;;;;6.38;2.90;;;12.00;99.90;;;;;;4770807;30;20067;-79
2021/10/24 13:09:32;;;;;;;4.38;3.97;;;11.90;99.90;;;;;;4769713;30;20047;-79
2021/10/24 13:12:00;;;;;;;9.23;4.55;;;11.80;99.90;;;;;;4754185;30;20054;-79
2021/10/24 13:14:28;;;;;;;5.53;4.28;;;11.80;99.90;;;;;;4769340;29;20064;-79
2021/10/24 13:16:55;;;;;;;5.50;3.75;;;11.80;99.90;;;;;;4769892;30;20430;-79
2021/10/24 13:19:23;;;;;;;6.13;5.43;;;12.00;99.90;;;;;;4770449;30;20060;-79
2021/10/24 13:24:19;;;;;;;4.72;4.32;;;12.10;99.90;;;;;;4770035;30;20051;-79
2021/10/24 13:26:48;;;;;;;3.47;3.15;;;12.20;99.90;;;;;;4734390;30;20053;-79
2021/10/24 13:29:16;;;;;;;3.65;3.38;;;12.20;99.90;;;;;;4732357;30;20057;-83
2021/10/24 13:31:44;;;;;;;8.02;4.80;;;12.10;99.90;;;;;;4734718;30;20071;-84
2021/10/24 13:34:12;;;;;;;4.97;3.13;;;12.00;99.90;;;;;;4734562;30;20064;-83
2021/10/24 13:36:40;;;;;;;3.63;3.33;;;11.90;99.90;;;;;;4734431;30;20067;-83
2021/10/24 13:39:08;;;;;;;4.25;3.22;;;12.00;99.90;;;;;;4734614;30;20053;-84
2021/10/24 13:41:36;;;;;;;8.18;3.80;;;12.00;99.90;;;;;;4733138;30;20056;-84
2021/10/24 13:44:04;;;;;;;3.58;3.28;;;11.90;99.90;;;;;;4718731;30;20067;-86
2021/10/24 13:46:38;;;;;;;3.35;3.05;;;11.90;99.90;;;;;;4746612;30;20076;-83
2021/10/24 13:49:09;;;;;;;3.42;2.80;;;12.00;99.90;;;;;;4726210;30;20049;-83
2021/10/24 13:51:44;;;;;;;2.83;2.63;;;11.90;99.90;;;;;;4718784;30;20064;-86
2021/10/24 13:54:16;;;;;;;3.28;2.97;;;11.90;99.90;;;;;;4717948;30;20060;-86
2021/10/24 13:56:58;;;;;;;5.22;3.45;;;12.00;99.90;;;;;;4695010;30;20067;-85